Latest Weather Observations for Bunbury

IDW60801

Issued at 7:34 am WST Tuesday 17 October 2017 (issued every 30 minutes, with the page automatically refreshed every 10 minutes)

About weather observations | Map of weather stations | Latest weather observations for WA | Other Formats
Station Details ID: 009965 Name: BUNBURY Lat: -33.36 Lon: 115.64 Height: 5.2 m
Data from the previous 72 hours. | See also: Recent months at Bunbury
Date/Time
WST
Temp
°C
App
Temp
°C
Dew
Point
°C
Rel
Hum
%
Delta-T
°C
Wind Press
QNH
hPa
Press
MSL
hPa
Rain since
9am
mm
Dir  Spd
km/h
Gust
km/h
Spd
kts
Gust
kts
17/07:30am 15.4 11.0 8.9 65 3.3 W 22 35 12 19 1007.6 1007.6 4.0
17/07:00am 15.0 11.0 8.9 67 3.1 W 20 39 11 21 1007.3 1007.3 4.0
17/06:30am 14.4 10.9 10.8 79 1.9 W 20 30 11 16 1007.0 1007.0 4.0
17/06:00am 14.0 11.1 11.0 82 1.6 W 17 28 9 15 1006.6 1006.6 4.0
17/05:30am 13.6 10.2 11.1 85 1.3 W 20 35 11 19 1006.2 1006.2 4.0
17/05:00am 13.6 8.8 10.4 81 1.7 WSW 26 41 14 22 1006.2 1006.2 3.8
17/04:30am 13.7 9.9 11.2 85 1.3 W 22 37 12 20 1005.8 1005.8 3.8
17/04:15am 14.6 9.7 11.2 80 1.8 W 28 48 15 26 1005.6 1005.6 3.8
17/04:00am 14.4 11.1 11.6 83 1.5 W 20 35 11 19 1005.4 1005.4 3.8
17/03:30am 14.1 10.7 11.3 83 1.5 W 20 33 11 18 1005.2 1005.2 3.8
17/03:00am 14.9 11.0 10.7 76 2.2 WNW 22 32 12 17 1005.0 1005.0 3.8
17/02:30am 14.9 11.4 10.1 73 2.5 W 19 33 10 18 1004.9 1004.9 3.8
17/02:00am 14.9 11.3 10.7 76 2.2 W 20 39 11 21 1005.0 1005.0 3.8
17/01:30am 15.2 10.8 10.4 73 2.5 W 24 39 13 21 1005.1 1005.1 3.8
17/01:00am 14.8 10.7 11.4 80 1.8 W 24 35 13 19 1004.8 1004.8 3.8
17/12:30am 14.3 10.6 11.5 83 1.5 W 22 37 12 20 1004.4 1004.4 3.6
17/12:00am 13.9 10.2 11.4 85 1.3 W 22 37 12 20 1004.2 1004.2 3.6
 
Date/Time
WST
Temp
°C
App
Temp
°C
Dew
Point
°C
Rel
Hum
%
Delta-T
°C
Wind Press
QNH
hPa
Press
MSL
hPa
Rain since
9am
mm
Dir  Spd
km/h
Gust
km/h
Spd
kts
Gust
kts
16/11:30pm 15.4 11.2 11.0 75 2.3 WNW 24 43 13 23 1003.8 1003.8 3.6
16/11:00pm 15.5 10.4 10.5 72 2.6 W 28 43 15 23 1003.5 1003.5 3.6
16/10:48pm 15.6 10.4 10.2 70 2.8 WNW 28 46 15 25 1003.4 1003.4 3.6
16/10:30pm 15.4 10.6 10.4 72 2.6 WNW 26 39 14 21 1003.1 1003.1 3.6
16/10:00pm 15.2 9.9 9.8 70 2.8 W 28 43 15 23 1002.7 1002.7 3.6
16/09:30pm 15.6 9.6 10.8 73 2.5 W 33 56 18 30 1002.3 1002.3 3.6
16/09:04pm 15.6 9.5 11.8 78 2.1 WNW 35 54 19 29 1001.6 1001.6 3.6
16/09:00pm 15.9 9.8 11.9 77 2.2 WNW 35 52 19 28 1001.5 1001.5 3.6
16/08:30pm 15.8 9.6 11.4 75 2.4 WNW 35 61 19 33 1000.5 1000.5 3.6
16/08:00pm 15.3 8.0 10.3 72 2.6 WNW 39 59 21 32 999.7 999.7 3.6
16/07:30pm 15.0 9.3 12.9 87 1.2 NW 35 54 19 29 999.3 999.3 3.6
16/07:00pm 15.4 8.1 12.9 85 1.4 NW 43 65 23 35 999.0 999.0 2.8
16/06:30pm 14.5 7.2 11.7 83 1.5 NNW 41 65 22 35 998.8 998.8 2.2
16/06:00pm 16.4 8.6 11.1 71 2.9 NNW 43 70 23 38 998.6 998.6 1.8
16/05:30pm 16.0 8.5 11.0 72 2.7 NNW 41 65 22 35 998.7 998.7 1.8
16/05:00pm 15.8 8.1 11.4 75 2.4 NNW 43 69 23 37 998.8 998.8 1.8
16/04:32pm 15.5 9.7 11.5 77 2.2 NNW 33 57 18 31 999.1 999.1 1.2
16/04:30pm 15.7 9.9 11.5 76 2.3 NNW 33 50 18 27 999.1 999.1 1.2
16/04:00pm 14.4 7.1 10.2 76 2.2 NNW 39 70 21 38 999.3 999.3 1.0
16/03:30pm 14.4 6.1 9.4 72 2.6 NW 43 65 23 35 999.5 999.5 0.6
16/03:01pm 18.1 11.8 11.0 63 3.8 NNW 35 54 19 29 999.1 999.1 0.6
16/03:00pm 17.8 10.9 10.4 62 4.0 NNW 37 54 20 29 999.1 999.1 0.6
16/02:30pm 15.2 9.2 10.0 71 2.7 NW 32 50 17 27 999.3 999.3 0.4
16/02:00pm 18.1 11.9 10.2 60 4.2 NW 33 54 18 29 999.3 999.3 0.2
16/01:58pm 18.8 12.8 10.9 60 4.3 NW 33 54 18 29 999.3 999.3 0.2
16/01:30pm 18.2 12.0 9.3 56 4.7 NW 32 46 17 25 999.7 999.7 0.2
16/01:01pm 18.6 12.1 9.1 54 5.0 NW 33 57 18 31 999.8 999.8 0.2
16/01:00pm 19.0 12.9 10.3 57 4.7 NW 33 50 18 27 999.8 999.8 0.2
16/12:30pm 18.4 11.3 11.0 62 4.0 NW 39 61 21 33 999.6 999.6 0.2
16/12:00pm 18.0 10.7 10.1 60 4.2 NNW 39 63 21 34 999.5 999.5 0.2
16/11:31am 17.1 10.4 10.9 67 3.3 NW 37 56 20 30 999.1 999.1 0.2
16/11:30am 17.0 10.0 11.1 68 3.2 NW 39 56 21 30 999.2 999.2 0.2
16/11:00am 17.2 9.9 10.3 64 3.7 NW 39 61 21 33 999.3 999.3 0.2
16/10:34am 18.0 10.9 10.9 63 3.8 NW 39 57 21 31 999.0 999.0 0.2
16/10:30am 17.7 10.9 10.6 63 3.8 NW 37 52 20 28 999.1 999.1 0.2
16/10:00am 16.4 12.8 13.1 81 1.9 NW 24 41 13 22 999.0 999.0 0.2
16/09:30am 16.1 12.9 14.3 89 1.0 NW 24 41 13 22 998.6 998.6 0.0
16/09:00am 15.1 11.7 13.6 91 0.8 NW 24 39 13 21 998.6 998.6 3.0
16/08:30am 14.6 10.3 13.3 92 0.7 NW 28 48 15 26 998.8 998.8 2.8
16/08:26am 14.7 10.5 13.4 92 0.7 NW 28 48 15 26 998.9 998.9 2.8
16/08:00am 14.5 10.2 13.2 92 0.7 NW 28 43 15 23 998.8 998.8 2.2
16/07:30am 14.9 8.9 13.3 90 0.9 WNW 37 63 20 34 998.4 998.4 1.0
16/07:23am 14.9 8.1 13.1 89 1.0 NNW 41 65 22 35 997.8 997.8 1.0
16/07:19am 15.5 10.6 13.7 89 1.0 N 32 63 17 34 997.5 997.5 0.6
16/07:17am 15.7 11.6 13.7 88 1.1 NNE 28 63 15 34 997.4 997.4 0.4
16/07:00am 16.6 13.8 14.2 86 1.4 NNE 22 35 12 19 997.3 997.3 0.0
16/06:30am 16.2 13.7 14.0 87 1.2 NNE 20 33 11 18 997.9 997.9 0.0
16/06:00am 16.3 14.3 13.8 85 1.4 NNE 17 26 9 14 998.5 998.5 0.0
16/05:30am 16.3 14.6 13.6 84 1.5 NNE 15 24 8 13 998.6 998.6 0.0
16/05:00am 16.8 14.8 13.9 83 1.7 NNE 17 28 9 15 999.2 999.2 0.0
16/04:30am 17.1 14.7 13.8 81 1.9 N 19 30 10 16 999.8 999.8 0.0
16/04:00am 17.0 14.5 13.5 80 2.0 N 19 28 10 15 1000.0 1000.0 0.0
16/03:30am 17.1 14.7 13.8 81 1.9 N 19 28 10 15 1000.4 1000.4 0.0
16/03:00am 16.9 15.5 14.4 85 1.4 N 15 24 8 13 1000.7 1000.7 0.0
16/02:30am 16.6 15.8 13.9 84 1.5 N 11 20 6 11 1001.0 1001.0 0.0
16/02:00am 16.2 14.7 13.1 82 1.7 N 13 20 7 11 1002.1 1002.1 0.0
16/01:30am 16.2 15.5 13.1 82 1.7 NNE 9 13 5 7 1002.2 1002.2 0.0
16/01:00am 16.3 15.2 13.0 81 1.8 NNE 11 17 6 9 1002.2 1002.2 0.0
16/12:30am 16.6 15.1 13.1 80 2.0 N 13 17 7 9 1002.8 1002.8 0.0
16/12:00am 16.6 16.3 13.3 81 1.9 N 7 11 4 6 1003.0 1003.0 0.0
 
Date/Time
WST
Temp
°C
App
Temp
°C
Dew
Point
°C
Rel
Hum
%
Delta-T
°C
Wind Press
QNH
hPa
Press
MSL
hPa
Rain since
9am
mm
Dir  Spd
km/h
Gust
km/h
Spd
kts
Gust
kts
15/11:30pm 16.2 15.9 12.7 80 1.9 NNE 6 9 3 5 1003.5 1003.5 0.0
15/11:00pm 16.4 15.9 12.8 79 2.0 NW 7 11 4 6 1004.7 1004.7 0.0
15/10:30pm 16.7 15.9 13.0 79 2.1 W 9 17 5 9 1004.7 1004.7 0.0
15/10:00pm 16.8 15.7 13.1 79 2.1 W 11 17 6 9 1005.2 1005.2 0.0
15/09:30pm 16.6 16.2 13.1 80 2.0 W 7 11 4 6 1005.2 1005.2 0.0
15/09:00pm 16.6 15.5 13.1 80 2.0 W 11 15 6 8 1005.8 1005.8 0.0
15/08:30pm 16.2 16.0 13.1 82 1.7 W 6 9 3 5 1006.1 1006.1 0.0
15/08:00pm 15.3 16.1 12.4 83 1.6 CALM 0 4 0 2 1005.8 1005.8 0.0
15/07:30pm 15.3 16.0 12.1 81 1.7 CALM 0 0 0 0 1005.5 1005.5 0.0
15/07:00pm 15.9 16.4 11.5 75 2.4 CALM 0 4 0 2 1006.0 1006.0 0.0
15/06:30pm 16.6 16.3 11.5 72 2.8 W 4 6 2 3 1006.6 1006.6 0.0
15/06:00pm 18.0 18.4 12.5 70 3.1 WSW 2 6 1 3 1006.8 1006.8 0.0
15/05:30pm 18.6 18.6 12.4 67 3.5 WNW 4 9 2 5 1007.3 1007.3 0.0
15/05:00pm 18.8 18.2 12.3 66 3.6 W 7 11 4 6 1007.5 1007.5 0.0
15/04:30pm 19.1 18.2 12.6 66 3.6 W 9 17 5 9 1007.8 1007.8 0.0
15/04:00pm 19.3 18.0 12.6 65 3.8 W 11 17 6 9 1008.2 1008.2 0.0
15/03:30pm 19.4 18.2 12.7 65 3.8 WNW 11 17 6 9 1008.3 1008.3 0.0
15/03:00pm 19.7 18.5 12.9 65 3.8 W 11 20 6 11 1008.4 1008.4 0.0
15/02:30pm 20.0 18.5 13.0 64 4.0 NW 13 19 7 10 1008.6 1008.6 0.0
15/02:00pm 19.5 17.8 12.5 64 3.9 W 13 19 7 10 1008.7 1008.7 0.0
15/01:30pm 19.8 17.4 12.8 64 3.9 WNW 17 24 9 13 1009.1 1009.1 0.0
15/01:00pm 19.6 16.8 12.6 64 3.9 NW 19 24 10 13 1009.4 1009.4 0.0
15/12:30pm 19.9 17.6 12.9 64 4.0 NW 17 22 9 12 1009.3 1009.3 0.0
15/12:00pm 19.8 17.1 13.0 65 3.9 NW 19 24 10 13 1009.6 1009.6 0.0
15/11:30am 20.0 17.8 13.2 65 3.9 NW 17 24 9 13 1009.5 1009.5 0.0
15/11:00am 19.3 17.0 13.0 67 3.6 NNW 17 24 9 13 1009.9 1009.9 0.0
15/10:30am 19.6 18.2 13.5 68 3.5 N 13 20 7 11 1010.1 1010.1 0.0
15/10:00am 18.9 16.6 12.9 68 3.4 N 17 24 9 13 1010.3 1010.3 0.0
15/09:30am 19.8 18.5 13.7 68 3.5 N 13 22 7 12 1010.3 1010.3 0.0
15/09:00am 19.1 18.1 13.3 69 3.3 NNW 11 19 6 10 1010.3 1010.3 0.0
15/08:30am 18.6 17.1 13.0 70 3.2 NNW 13 19 7 10 1010.3 1010.3 0.0
15/08:00am 18.1 16.9 12.8 71 3.0 N 11 20 6 11 1010.5 1010.5 0.0
15/07:30am 18.0 17.0 13.3 74 2.7 N 11 19 6 10 1010.1 1010.1 0.0
15/07:00am 17.1 15.8 12.4 74 2.6 N 11 19 6 10 1010.1 1010.1 0.0
15/06:30am 17.3 16.7 13.4 78 2.2 NNE 9 15 5 8 1010.0 1010.0 0.0
15/06:00am 17.0 16.0 13.3 79 2.1 NNE 11 15 6 8 1009.9 1009.9 0.0
15/05:30am 17.0 16.5 13.7 81 1.9 N 9 13 5 7 1010.1 1010.1 0.0
15/05:00am 17.0 16.6 14.1 83 1.7 NNW 9 15 5 8 1010.2 1010.2 0.0
15/04:30am 17.0 17.1 14.5 85 1.4 N 7 11 4 6 1010.1 1010.1 0.0
15/04:00am 16.9 16.9 14.2 84 1.5 NNW 7 13 4 7 1009.9 1009.9 0.0
15/03:30am 16.9 16.2 14.4 85 1.4 NNW 11 15 6 8 1010.2 1010.2 0.0
15/03:00am 16.8 15.7 14.3 85 1.4 NNW 13 20 7 11 1009.9 1009.9 0.0
15/02:30am 16.8 16.5 14.4 86 1.4 N 9 13 5 7 1009.9 1009.9 0.0
15/02:00am 16.8 16.1 14.4 86 1.4 N 11 13 6 7 1009.9 1009.9 0.0
15/01:30am 16.7 16.1 14.5 87 1.3 N 11 15 6 8 1010.1 1010.1 0.0
15/01:00am 16.8 16.2 14.6 87 1.3 N 11 15 6 8 1010.4 1010.4 0.0
15/12:30am 16.9 16.7 14.7 87 1.3 N 9 15 5 8 1010.6 1010.6 0.0
15/12:00am 16.9 17.1 14.7 87 1.3 NNE 7 13 4 7 1010.7 1010.7 0.0
 
Date/Time
WST
Temp
°C
App
Temp
°C
Dew
Point
°C
Rel
Hum
%
Delta-T
°C
Wind Press
QNH
hPa
Press
MSL
hPa
Rain since
9am
mm
Dir  Spd
km/h
Gust
km/h
Spd
kts
Gust
kts
14/11:30pm 16.9 17.7 14.7 87 1.3 NNE 4 6 2 3 1011.1 1011.1 0.0
14/11:00pm 17.0 17.4 14.8 87 1.3 NNW 6 7 3 4 1011.5 1011.5 0.0
14/10:30pm 17.1 18.0 15.1 88 1.2 N 4 7 2 4 1011.7 1011.7 0.0
14/10:00pm 17.2 18.1 15.2 88 1.2 NNW 4 7 2 4 1011.8 1011.8 0.0
14/09:30pm 17.3 18.3 15.3 88 1.2 WNW 4 6 2 3 1012.0 1012.0 0.0
14/09:00pm 17.3 18.7 15.5 89 1.1 WNW 2 6 1 3 1012.0 1012.0 0.0
14/08:30pm 17.4 18.0 15.7 90 1.0 WNW 7 11 4 6 1012.1 1012.1 0.0
14/08:00pm 17.1 17.7 15.4 90 1.0 WNW 6 9 3 5 1011.9 1011.9 0.0
14/07:30pm 17.3 19.0 15.3 88 1.2 CALM 0 0 0 0 1011.2 1011.2 0.0
14/07:00pm 17.7 19.2 15.7 88 1.2 SW 2 6 1 3 1011.4 1011.4 0.0
14/06:30pm 17.8 17.9 15.6 87 1.3 W 9 15 5 8 1011.3 1011.3 0.0
14/06:00pm 18.6 18.1 15.8 84 1.7 W 13 17 7 9 1011.3 1011.3 0.0
14/05:30pm 19.6 19.5 15.9 79 2.2 W 11 17 6 9 1011.1 1011.1 0.0
14/05:00pm 20.2 20.1 16.0 77 2.5 W 11 17 6 9 1011.0 1011.0 0.0
14/04:30pm 21.4 20.6 16.1 72 3.2 WSW 15 24 8 13 1011.1 1011.1 0.0
14/04:00pm 21.4 19.9 15.3 68 3.6 W 17 24 9 13 1010.9 1010.9 0.0
14/03:30pm 21.8 20.2 14.9 65 4.1 W 17 24 9 13 1010.7 1010.7 0.0
14/03:00pm 22.4 20.8 14.0 59 4.9 W 15 20 8 11 1010.6 1010.6 0.0
14/02:30pm 22.2 20.1 14.6 62 4.5 W 19 28 10 15 1010.5 1010.5 0.0
14/02:00pm 23.3 20.7 13.2 53 5.8 WNW 19 28 10 15 1010.5 1010.5 0.0
14/01:30pm 24.3 21.8 13.5 51 6.3 WNW 19 24 10 13 1010.4 1010.4 0.0
14/01:00pm 23.1 20.5 13.8 55 5.4 WNW 20 28 11 15 1010.6 1010.6 0.0
14/12:30pm 24.2 22.3 13.1 50 6.4 WNW 15 19 8 10 1010.5 1010.5 0.0
14/12:00pm 24.1 21.6 12.4 48 6.7 WNW 17 22 9 12 1010.6 1010.6 0.0
14/11:30am 24.7 22.5 12.0 45 7.2 NW 15 20 8 11 1010.5 1010.5 0.0
14/11:00am 25.4 25.0 14.2 50 6.6 NNE 9 15 5 8 1010.7 1010.7 0.0
14/10:30am 25.0 25.0 14.2 51 6.4 N 7 13 4 7 1011.0 1011.0 0.0
14/10:00am 23.9 22.9 13.4 51 6.1 NW 11 15 6 8 1011.6 1011.6 0.0
14/09:30am 23.1 22.4 13.3 54 5.7 NW 9 13 5 7 1012.1 1012.1 0.0
14/09:00am 23.8 23.1 13.1 51 6.2 NNE 9 15 5 8 1012.1 1012.1 0.0
14/08:30am 23.2 21.6 12.8 52 6.0 ENE 13 19 7 10 1011.9 1011.9 0.0
14/08:00am 22.3 21.0 12.5 53 5.6 ENE 11 17 6 9 1011.7 1011.7 0.0

Other Formats:

Comma delimited format used in spreadsheet applications
http://www.bom.gov.au/fwo/IDW60801/IDW60801.94604.axf

JavaScript Object Notation format (JSON) in row-major order
http://www.bom.gov.au/fwo/IDW60801/IDW60801.94604.json